Time;durP1;ratioP1;P1;durP2;ratioP2;P2;SDS_P1;SDS_P2;PMS_P1;PMS_P2;Temp;Humidity;BMP_temperature;BMP_pressure;BME280_temperature;BME280_humidity;BME280_pressure;Samples;Min_cycle;Max_cycle;Signal;HPM_P1;HPM_P2
2022/08/31 00:05:57;;;;;;;2.65;1.40;;;20.70;83.40;;;;;;5028993;28;20520;-71
2022/08/31 00:08:24;;;;;;;4.63;1.85;;;20.70;83.60;;;;;;5028989;28;20607;-70
2022/08/31 00:10:50;;;;;;;2.70;1.52;;;20.70;83.90;;;;;;5010955;28;20034;-71
2022/08/31 00:13:16;;;;;;;4.45;1.65;;;20.60;84.10;;;;;;5028983;28;20037;-71
2022/08/31 00:15:42;;;;;;;3.58;1.60;;;20.60;84.50;;;;;;5028552;28;20022;-71
2022/08/31 00:18:09;;;;;;;4.00;1.55;;;20.60;84.70;;;;;;5028875;28;20152;-71
2022/08/31 00:20:35;;;;;;;2.95;1.73;;;20.60;84.80;;;;;;5028859;28;20041;-71
2022/08/31 00:23:07;;;;;;;4.78;1.90;;;20.60;85.10;;;;;;5030661;28;20124;-72
2022/08/31 00:25:34;;;;;;;4.60;1.70;;;20.60;85.30;;;;;;5032630;28;20033;-70
2022/08/31 00:28:02;;;;;;;4.80;2.20;;;20.60;86.40;;;;;;5032234;28;20057;-74
2022/08/31 00:30:29;;;;;;;3.28;1.73;;;20.60;85.90;;;;;;5031976;28;20049;-71
2022/08/31 00:32:55;;;;;;;3.45;1.80;;;20.60;86.10;;;;;;5014762;28;20113;-73
2022/08/31 00:35:21;;;;;;;3.83;1.50;;;20.50;86.30;;;;;;5032597;28;20028;-72
2022/08/31 00:37:47;;;;;;;4.32;1.60;;;20.50;86.50;;;;;;5032230;28;20037;-70
2022/08/31 00:40:13;;;;;;;4.03;1.70;;;20.50;86.70;;;;;;5032206;28;20033;-72
2022/08/31 00:42:39;;;;;;;5.30;2.25;;;20.50;86.90;;;;;;5014263;28;20211;-70
2022/08/31 00:45:06;;;;;;;4.28;1.73;;;20.50;87.90;;;;;;5014610;28;20415;-70
2022/08/31 00:47:32;;;;;;;2.97;1.50;;;20.50;87.40;;;;;;5013426;28;20379;-71
2022/08/31 00:49:59;;;;;;;2.97;1.48;;;20.40;87.60;;;;;;5032030;28;20060;-71
2022/08/31 00:52:35;;;;;;;2.47;1.48;;;20.40;87.90;;;;;;5014075;28;20026;-70
2022/08/31 00:55:30;;;;;;;3.97;1.92;;;20.40;88.10;;;;;;5031923;28;20026;-70
2022/08/31 00:58:05;;;;;;;4.13;1.67;;;20.50;88.30;;;;;;5021200;28;20429;-70
2022/08/31 01:00:31;;;;;;;2.63;1.30;;;20.40;88.50;;;;;;5031275;28;20040;-71
2022/08/31 01:03:00;;;;;;;3.22;1.38;;;20.40;88.70;;;;;;5031845;28;20445;-70
2022/08/31 01:05:27;;;;;;;3.63;1.38;;;20.40;88.80;;;;;;5031652;28;20501;-73
2022/08/31 01:07:54;;;;;;;2.92;1.40;;;20.40;89.00;;;;;;5031471;28;20471;-70
2022/08/31 01:10:25;;;;;;;3.95;1.60;;;20.40;89.10;;;;;;5030005;28;20057;-70
2022/08/31 01:12:54;;;;;;;2.40;1.50;;;20.30;89.20;;;;;;5031650;28;20049;-70
2022/08/31 01:15:21;;;;;;;2.88;1.50;;;20.30;89.40;;;;;;5013224;28;20022;-70
2022/08/31 01:17:49;;;;;;;2.70;1.30;;;20.30;89.60;;;;;;5013334;28;20502;-73
2022/08/31 01:20:45;;;;;;;1.95;1.20;;;20.30;89.80;;;;;;5031097;28;20034;-72
2022/08/31 01:23:44;;;;;;;4.50;1.13;;;20.30;90.00;;;;;;5013534;28;20513;-73
2022/08/31 01:26:18;;;;;;;;;;;20.20;90.10;;;;;;5031490;28;20029;-71
2022/08/31 01:28:46;;;;;;;2.28;1.30;;;20.20;90.10;;;;;;5013236;28;19995;-71
2022/08/31 01:31:14;;;;;;;2.40;1.13;;;20.20;90.20;;;;;;5012815;28;20021;-70
2022/08/31 01:33:41;;;;;;;2.30;1.10;;;20.20;90.30;;;;;;4996690;28;20049;-70
2022/08/31 01:36:08;;;;;;;2.72;1.38;;;20.20;90.30;;;;;;5013031;28;20030;-70
2022/08/31 01:38:36;;;;;;;3.42;1.30;;;20.20;90.30;;;;;;5013005;28;20055;-70
2022/08/31 01:41:03;;;;;;;1.90;1.27;;;20.20;90.40;;;;;;5030966;28;20037;-70
2022/08/31 01:43:32;;;;;;;2.22;1.30;;;20.10;90.40;;;;;;5038111;23;20049;-79
2022/08/31 01:46:00;;;;;;;2.55;1.20;;;20.10;90.50;;;;;;5028423;28;20028;-80
2022/08/31 01:48:26;;;;;;;3.78;1.15;;;20.10;90.60;;;;;;5028831;28;20112;-80
2022/08/31 01:50:51;;;;;;;2.72;1.30;;;20.10;90.60;;;;;;5028551;28;20123;-80
2022/08/31 01:53:17;;;;;;;4.18;1.20;;;20.10;90.60;;;;;;5027870;28;20091;-80
2022/08/31 01:55:43;;;;;;;2.25;1.25;;;20.10;90.70;;;;;;5028559;28;20561;-80
2022/08/31 01:58:09;;;;;;;3.72;1.08;;;20.00;90.80;;;;;;5030006;28;20040;-80
2022/08/31 02:00:38;;;;;;;3.55;1.20;;;20.00;90.80;;;;;;5028397;28;20037;-80
2022/08/31 02:03:06;;;;;;;2.33;1.10;;;20.00;90.90;;;;;;5028410;28;20116;-80
2022/08/31 02:05:36;;;;;;;3.22;1.15;;;20.00;90.90;;;;;;5028548;28;20450;-80
2022/08/31 02:08:05;;;;;;;2.78;1.27;;;20.00;91.00;;;;;;5027781;28;20677;-80
2022/08/31 02:10:30;;;;;;;2.83;1.20;;;19.90;91.00;;;;;;5012306;28;20104;-80
2022/08/31 02:12:56;;;;;;;2.20;1.38;;;19.90;91.00;;;;;;5028271;28;20449;-80
2022/08/31 02:15:28;;;;;;;3.28;1.00;;;19.90;91.10;;;;;;5029495;28;20040;-80
2022/08/31 02:17:54;;;;;;;4.28;1.30;;;19.90;91.10;;;;;;5027910;28;20033;-80
2022/08/31 02:20:20;;;;;;;3.83;1.10;;;19.90;91.10;;;;;;5027958;28;20083;-80
2022/08/31 02:22:47;;;;;;;2.60;1.10;;;19.90;91.20;;;;;;5027272;28;20080;-80
2022/08/31 02:25:14;;;;;;;2.90;1.30;;;19.80;91.20;;;;;;5028125;28;20367;-80
2022/08/31 02:27:41;;;;;;;2.50;1.10;;;19.80;91.20;;;;;;5029012;28;20041;-80
2022/08/31 02:30:13;;;;;;;2.67;1.17;;;19.80;91.30;;;;;;5028255;28;20110;-80
2022/08/31 02:32:39;;;;;;;3.05;1.30;;;19.80;91.20;;;;;;5029389;28;20315;-80
2022/08/31 02:35:05;;;;;;;3.22;1.20;;;19.80;91.20;;;;;;5028211;28;20060;-80
2022/08/31 02:37:31;;;;;;;3.80;1.67;;;19.80;91.30;;;;;;5027167;28;20048;-80
2022/08/31 02:39:57;;;;;;;4.00;1.55;;;19.80;91.30;;;;;;5027755;28;20025;-80
2022/08/31 02:42:23;;;;;;;2.67;1.10;;;19.80;91.30;;;;;;5027557;28;20033;-80
2022/08/31 02:44:49;;;;;;;3.22;1.10;;;19.80;91.40;;;;;;5027311;28;20048;-80
2022/08/31 02:47:16;;;;;;;3.53;1.30;;;19.80;91.40;;;;;;5026996;28;20034;-80
2022/08/31 02:49:52;;;;;;;2.83;1.42;;;19.80;91.40;;;;;;5027552;28;20032;-80
2022/08/31 02:52:18;;;;;;;4.22;1.30;;;19.80;91.40;;;;;;5028159;28;20022;-80
2022/08/31 02:54:44;;;;;;;3.58;1.13;;;19.80;91.40;;;;;;5027504;28;20370;-80
2022/08/31 02:57:10;;;;;;;4.43;1.38;;;19.80;91.50;;;;;;5027244;28;20071;-80
2022/08/31 02:59:36;;;;;;;2.22;1.08;;;19.70;91.50;;;;;;5027509;28;20037;-80
2022/08/31 03:02:03;;;;;;;3.25;1.27;;;19.70;91.60;;;;;;5028620;28;20033;-80
2022/08/31 03:04:29;;;;;;;2.17;1.27;;;19.70;91.60;;;;;;5027536;28;20516;-80
2022/08/31 03:06:55;;;;;;;3.05;1.30;;;19.70;91.60;;;;;;5028665;28;20485;-80
2022/08/31 03:09:21;;;;;;;3.33;1.20;;;19.60;91.60;;;;;;5026805;28;20112;-80
2022/08/31 03:11:47;;;;;;;3.35;1.23;;;19.60;92.00;;;;;;5027149;28;20030;-80
2022/08/31 03:14:12;;;;;;;4.30;1.33;;;19.60;91.70;;;;;;5027458;28;20129;-80
2022/08/31 03:16:39;;;;;;;2.78;1.40;;;19.60;91.70;;;;;;5027116;28;20037;-80
2022/08/31 03:19:06;;;;;;;2.80;1.40;;;19.60;91.70;;;;;;5027243;28;20040;-80
2022/08/31 03:21:32;;;;;;;4.30;1.50;;;19.60;91.80;;;;;;5028906;28;20068;-80
2022/08/31 03:23:58;;;;;;;3.20;1.23;;;19.60;91.80;;;;;;5028260;28;20482;-80
2022/08/31 03:26:24;;;;;;;3.05;1.13;;;19.50;91.80;;;;;;5027237;28;20120;-80
2022/08/31 03:28:49;;;;;;;3.75;1.20;;;19.50;91.90;;;;;;5027151;28;20037;-80
2022/08/31 03:31:53;;;;;;;4.22;1.35;;;19.50;91.90;;;;;;5005899;28;20034;-80
2022/08/31 03:34:19;;;;;;;2.30;1.30;;;19.50;91.90;;;;;;5006167;28;20033;-80
2022/08/31 03:36:46;;;;;;;2.55;1.30;;;19.50;92.00;;;;;;5015751;28;20034;-80
2022/08/31 03:39:11;;;;;;;7.47;1.70;;;19.40;92.00;;;;;;5026538;28;20092;-81
2022/08/31 03:41:37;;;;;;;4.22;1.50;;;19.50;92.10;;;;;;5027227;28;20113;-80
2022/08/31 03:44:04;;;;;;;2.63;1.15;;;19.50;92.10;;;;;;5026961;28;20478;-80
2022/08/31 03:46:31;;;;;;;3.20;1.40;;;19.40;92.10;;;;;;5026740;28;20069;-80
2022/08/31 03:49:00;;;;;;;3.83;1.30;;;19.40;92.10;;;;;;5026984;28;20032;-80
2022/08/31 03:51:26;;;;;;;;;;;19.40;92.10;;;;;;5027647;28;20061;-80
2022/08/31 03:53:52;;;;;;;2.70;1.35;;;19.30;92.20;;;;;;5043085;28;19943;-80
2022/08/31 03:56:19;;;;;;;2.88;1.52;;;19.30;92.20;;;;;;5027436;28;20365;-80
2022/08/31 03:58:48;;;;;;;2.78;1.30;;;19.30;92.20;;;;;;5030723;28;20034;-80
2022/08/31 04:01:35;;;;;;;3.17;1.40;;;19.30;92.30;;;;;;5030547;28;20022;-80
2022/08/31 04:04:19;;;;;;;2.45;1.30;;;19.30;92.30;;;;;;5032527;28;20095;-80
2022/08/31 04:07:05;;;;;;;4.07;1.42;;;19.20;92.30;;;;;;5031091;28;20065;-80
2022/08/31 04:09:49;;;;;;;4.25;1.60;;;19.20;92.40;;;;;;5032149;28;20493;-80
2022/08/31 04:13:02;;;;;;;2.65;1.30;;;19.20;92.40;;;;;;5032599;28;20038;-89
2022/08/31 04:15:46;;;;;;;1.85;1.23;;;19.20;92.50;;;;;;5016896;28;20083;-86
2022/08/31 04:18:30;;;;;;;3.22;1.30;;;19.20;92.40;;;;;;5032059;28;20107;-80
2022/08/31 04:20:56;;;;;;;5.50;1.35;;;19.20;92.40;;;;;;5030865;28;20490;-81
2022/08/31 04:23:24;;;;;;;4.72;1.20;;;19.20;92.50;;;;;;5029865;28;20402;-80
2022/08/31 04:25:51;;;;;;;3.75;1.70;;;19.20;92.80;;;;;;5030679;28;20060;-81
2022/08/31 04:28:17;;;;;;;4.97;1.30;;;19.10;92.40;;;;;;5031943;28;20053;-82
2022/08/31 04:30:43;;;;;;;2.90;1.45;;;19.10;92.50;;;;;;5013801;28;20251;-81
2022/08/31 04:33:13;;;;;;;2.67;1.30;;;19.10;92.50;;;;;;5030849;28;20083;-81
2022/08/31 04:35:40;;;;;;;4.18;1.52;;;19.10;92.60;;;;;;5030611;28;20544;-81
2022/08/31 04:38:07;;;;;;;4.80;2.00;;;19.10;92.60;;;;;;5013025;28;20120;-80
2022/08/31 04:40:36;;;;;;;3.53;1.80;;;19.10;92.60;;;;;;5030108;28;20034;-80
2022/08/31 04:43:02;;;;;;;;;;;19.10;92.60;;;;;;5030395;28;20489;-80
2022/08/31 04:45:28;;;;;;;3.60;1.38;;;19.00;92.60;;;;;;5031445;28;19916;-80
2022/08/31 04:47:53;;;;;;;3.15;1.50;;;19.00;92.60;;;;;;5029544;28;20025;-80
2022/08/31 04:50:19;;;;;;;3.40;1.42;;;19.00;92.60;;;;;;5031496;28;20461;-80
2022/08/31 04:53:03;;;;;;;1.80;1.20;;;19.00;92.60;;;;;;5030876;28;20037;-80
2022/08/31 04:55:29;;;;;;;5.30;1.55;;;19.00;92.60;;;;;;5030475;28;20026;-80
2022/08/31 04:57:55;;;;;;;3.03;1.58;;;19.00;92.60;;;;;;5031847;28;20032;-80
2022/08/31 05:00:21;;;;;;;4.93;1.70;;;19.00;92.60;;;;;;5013270;28;20036;-80
2022/08/31 05:03:18;;;;;;;3.90;1.30;;;19.00;92.50;;;;;;5026464;28;20045;-80
2022/08/31 05:05:45;;;;;;;3.38;1.75;;;19.00;92.40;;;;;;5029602;28;20036;-80
2022/08/31 05:08:11;;;;;;;3.47;1.40;;;19.00;92.50;;;;;;5008299;28;20116;-80
2022/08/31 05:10:39;;;;;;;4.10;1.73;;;19.00;92.50;;;;;;5026387;28;20037;-80
2022/08/31 05:13:05;;;;;;;3.90;1.40;;;19.00;92.50;;;;;;5009779;28;20125;-80
2022/08/31 05:15:32;;;;;;;4.00;1.52;;;18.90;92.50;;;;;;5025984;28;20073;-80
2022/08/31 05:17:58;;;;;;;3.75;1.58;;;18.90;92.40;;;;;;5009827;28;20124;-83
2022/08/31 05:20:24;;;;;;;4.00;1.50;;;18.90;92.50;;;;;;5010301;28;20395;-89
2022/08/31 05:22:50;;;;;;;7.70;2.17;;;18.90;92.40;;;;;;5010516;28;20048;-84
2022/08/31 05:25:16;;;;;;;5.28;1.98;;;18.90;92.30;;;;;;5011348;28;20398;-84
2022/08/31 05:27:41;;;;;;;3.75;1.85;;;18.90;92.20;;;;;;5009378;28;20045;-87
2022/08/31 05:30:08;;;;;;;6.30;1.85;;;18.90;92.30;;;;;;5025981;28;20026;-87
2022/08/31 05:32:44;;;;;;;3.53;1.35;;;18.90;92.30;;;;;;5009424;28;20026;-87
2022/08/31 05:35:10;;;;;;;5.53;1.70;;;18.90;92.30;;;;;;5026210;28;20026;-85
2022/08/31 05:37:38;;;;;;;3.50;1.90;;;18.90;92.20;;;;;;4992244;28;20030;-86
2022/08/31 05:40:06;;;;;;;5.65;1.80;;;18.90;92.10;;;;;;5025969;28;20045;-86
2022/08/31 05:42:32;;;;;;;4.53;1.70;;;18.90;92.10;;;;;;5025601;28;20038;-86
2022/08/31 05:44:58;;;;;;;4.55;1.92;;;18.90;92.00;;;;;;5025975;28;20038;-86
2022/08/31 05:47:24;;;;;;;4.43;1.70;;;18.90;92.00;;;;;;5008346;28;20037;-86
2022/08/31 05:49:52;;;;;;;3.03;1.55;;;18.90;92.00;;;;;;5009558;28;20524;-86
2022/08/31 05:52:20;;;;;;;4.38;1.55;;;18.90;92.00;;;;;;5024758;28;20572;-85
2022/08/31 05:54:46;;;;;;;11.05;2.30;;;18.90;91.90;;;;;;5026102;28;20053;-85
2022/08/31 05:57:13;;;;;;;4.93;1.55;;;19.00;91.80;;;;;;5008873;28;20034;-85
2022/08/31 05:59:39;;;;;;;5.43;1.70;;;18.90;91.80;;;;;;5025866;28;20128;-86
2022/08/31 06:02:10;;;;;;;4.40;2.20;;;18.90;91.80;;;;;;5008858;28;20062;-85
2022/08/31 06:04:35;;;;;;;;;;;18.90;91.80;;;;;;5026327;28;20455;-86
2022/08/31 06:07:01;;;;;;;6.57;2.00;;;19.00;91.80;;;;;;5025490;28;20012;-86
2022/08/31 06:09:34;;;;;;;5.20;2.00;;;19.00;91.70;;;;;;5025545;28;20041;-86
2022/08/31 06:12:02;;;;;;;7.35;2.08;;;19.00;91.70;;;;;;5025589;28;20030;-86
2022/08/31 06:14:29;;;;;;;4.78;1.83;;;18.90;91.70;;;;;;5009042;28;20048;-86
2022/08/31 06:16:58;;;;;;;5.13;1.70;;;19.00;91.70;;;;;;5024789;28;20044;-85
2022/08/31 06:19:28;;;;;;;4.72;1.73;;;18.90;91.60;;;;;;5008208;28;20048;-85
2022/08/31 06:25:05;;;;;;;6.50;1.80;;;18.90;91.50;;;;;;5060480;28;20060;-69
2022/08/31 06:27:34;;;;;;;4.60;2.05;;;19.00;91.50;;;;;;5028472;28;20582;-69
2022/08/31 06:30:00;;;;;;;3.88;1.85;;;19.00;91.50;;;;;;5028495;28;20037;-69
2022/08/31 06:32:27;;;;;;;6.30;1.83;;;19.00;91.50;;;;;;5028622;28;20026;-69
2022/08/31 06:34:57;;;;;;;4.75;1.90;;;19.00;91.40;;;;;;5028819;28;20036;-69
2022/08/31 06:37:49;;;;;;;5.43;2.00;;;19.00;91.40;;;;;;5028657;28;20040;-69
2022/08/31 06:40:40;;;;;;;6.95;2.05;;;19.00;91.40;;;;;;5028356;28;20039;-68
2022/08/31 06:43:29;;;;;;;5.00;2.33;;;19.00;91.40;;;;;;5028492;28;20112;-70
2022/08/31 06:45:58;;;;;;;6.20;2.03;;;19.00;91.40;;;;;;5012822;28;20030;-71
2022/08/31 06:48:30;;;;;;;6.70;2.03;;;19.00;91.30;;;;;;5029885;28;20542;-70
2022/08/31 06:50:57;;;;;;;5.60;1.75;;;19.10;91.50;;;;;;5029881;28;20068;-71
2022/08/31 06:53:24;;;;;;;5.63;1.80;;;19.10;91.20;;;;;;5028218;28;20026;-71
2022/08/31 06:56:19;;;;;;;3.60;2.08;;;19.10;91.20;;;;;;5030141;28;20049;-70
2022/08/31 06:59:23;;;;;;;5.45;1.83;;;19.10;91.20;;;;;;5048454;28;20175;-69
2022/08/31 07:02:21;;;;;;;5.90;1.77;;;19.10;91.20;;;;;;5031036;28;20029;-70
2022/08/31 07:04:47;;;;;;;3.50;1.70;;;19.20;91.10;;;;;;5027928;28;20055;-69
2022/08/31 07:07:13;;;;;;;4.60;1.75;;;19.20;91.10;;;;;;5027386;28;20123;-69
2022/08/31 07:09:41;;;;;;;5.18;1.90;;;19.20;91.20;;;;;;5027598;28;20029;-69
2022/08/31 07:12:07;;;;;;;4.28;2.10;;;19.20;91.30;;;;;;5027530;28;20026;-69
2022/08/31 07:14:34;;;;;;;5.53;2.15;;;19.20;91.30;;;;;;5027934;28;20026;-70
2022/08/31 07:17:02;;;;;;;7.65;2.10;;;19.20;91.20;;;;;;5026443;28;20490;-68
2022/08/31 07:19:29;;;;;;;9.35;2.70;;;19.20;91.20;;;;;;5027335;28;20033;-69
2022/08/31 07:21:58;;;;;;;5.30;2.10;;;19.20;91.20;;;;;;5027549;28;20519;-69
2022/08/31 07:24:29;;;;;;;5.38;2.17;;;19.30;91.30;;;;;;5027821;28;20045;-68
2022/08/31 07:27:03;;;;;;;3.50;1.80;;;19.30;91.30;;;;;;5027120;28;20624;-67
2022/08/31 07:29:41;;;;;;;9.02;2.08;;;19.30;91.20;;;;;;5027497;28;20040;-69
2022/08/31 07:32:13;;;;;;;9.60;2.00;;;19.30;91.10;;;;;;5029420;28;20067;-69
2022/08/31 07:34:42;;;;;;;10.40;2.63;;;19.30;91.10;;;;;;5031632;28;20144;-69
2022/08/31 07:43:07;;;;;;;7.32;2.53;;;19.40;91.10;;;;;;5044776;22;20362;-67
2022/08/31 07:45:35;;;;;;;6.18;2.38;;;19.40;91.10;;;;;;4991273;28;20144;-68
2022/08/31 07:48:01;;;;;;;4.72;2.15;;;19.40;91.10;;;;;;4992211;28;20132;-68
2022/08/31 07:50:43;;;;;;;5.70;1.85;;;19.50;91.00;;;;;;4992313;28;20030;-69
2022/08/31 07:53:13;;;;;;;6.15;2.20;;;19.50;91.00;;;;;;4993830;28;20034;-68
2022/08/31 07:55:59;;;;;;;7.68;1.98;;;19.50;91.00;;;;;;4993313;28;20506;-68
2022/08/31 07:58:51;;;;;;;4.35;2.17;;;19.50;91.00;;;;;;4993807;28;20038;-69
2022/08/31 08:01:20;;;;;;;4.18;1.70;;;19.50;90.90;;;;;;4992001;28;20492;-68
2022/08/31 08:03:46;;;;;;;4.97;2.05;;;19.50;90.80;;;;;;4993364;28;20108;-68
2022/08/31 08:06:31;;;;;;;7.05;2.08;;;19.50;90.80;;;;;;4993160;28;20498;-67
2022/08/31 08:09:10;;;;;;;5.20;2.33;;;19.60;90.80;;;;;;4991899;28;20495;-68
2022/08/31 08:11:45;;;;;;;5.68;2.10;;;19.60;91.10;;;;;;4993518;28;20026;-68
2022/08/31 08:14:28;;;;;;;4.90;2.03;;;19.60;91.20;;;;;;4991730;28;20467;-68
2022/08/31 08:17:07;;;;;;;4.25;2.05;;;19.60;91.30;;;;;;4991556;28;20113;-68
2022/08/31 08:19:47;;;;;;;6.72;2.10;;;19.70;91.40;;;;;;4993002;28;20022;-68
2022/08/31 08:22:13;;;;;;;5.43;1.80;;;19.80;91.30;;;;;;4992612;28;20037;-67
2022/08/31 08:24:59;;;;;;;5.00;1.98;;;19.80;91.30;;;;;;4992810;28;20046;-71
2022/08/31 08:27:53;;;;;;;7.97;2.20;;;19.90;91.10;;;;;;4989526;28;20062;-68
2022/08/31 08:30:30;;;;;;;3.83;1.90;;;19.90;91.10;;;;;;4992776;28;20050;-69
2022/08/31 08:33:00;;;;;;;5.20;2.05;;;19.90;91.40;;;;;;4991376;28;20026;-69
2022/08/31 08:35:29;;;;;;;7.47;2.13;;;19.90;91.30;;;;;;4991428;28;20034;-69
2022/08/31 08:37:56;;;;;;;6.43;2.47;;;19.90;91.60;;;;;;4991245;28;20125;-71
2022/08/31 08:40:41;;;;;;;4.47;1.90;;;19.80;91.60;;;;;;4991193;28;20038;-70
2022/08/31 08:43:14;;;;;;;6.38;2.65;;;19.80;91.60;;;;;;4991697;28;20399;-70
2022/08/31 08:45:44;;;;;;;4.93;2.38;;;19.90;91.60;;;;;;4991320;28;20034;-69
2022/08/31 08:48:16;;;;;;;4.63;2.50;;;19.90;91.30;;;;;;4991234;28;20030;-71
2022/08/31 08:50:42;;;;;;;7.90;2.17;;;19.90;91.30;;;;;;4991221;28;20402;-71
2022/08/31 08:53:14;;;;;;;6.10;2.33;;;19.90;91.50;;;;;;4991401;28;20031;-72
2022/08/31 08:55:50;;;;;;;6.90;2.00;;;19.90;91.20;;;;;;4991206;28;20056;-71
2022/08/31 08:58:18;;;;;;;3.47;1.90;;;19.90;92.20;;;;;;4992463;28;20069;-71
2022/08/31 09:00:50;;;;;;;;;;;19.90;92.30;;;;;;4991486;28;20046;-72
2022/08/31 09:03:43;;;;;;;5.43;2.50;;;19.90;91.60;;;;;;4991073;28;20011;-71
2022/08/31 09:06:14;;;;;;;;;;;19.90;91.40;;;;;;4992809;28;20038;-73
2022/08/31 09:09:02;;;;;;;8.38;2.35;;;19.90;91.80;;;;;;4990162;28;19913;-70
2022/08/31 09:11:36;;;;;;;5.93;2.50;;;19.90;91.50;;;;;;4991169;28;20026;-69
2022/08/31 09:14:23;;;;;;;5.40;2.63;;;20.00;91.50;;;;;;4991045;28;20058;-71
2022/08/31 09:17:05;;;;;;;4.88;2.47;;;20.00;91.60;;;;;;4990673;28;20031;-71
2022/08/31 09:19:57;;;;;;;4.13;2.80;;;20.00;91.70;;;;;;4990817;28;20030;-70
2022/08/31 09:22:17;;;;;;;6.10;2.30;;;20.00;92.10;;;;;;4990365;28;20038;-70
2022/08/31 09:24:43;;;;;;;6.00;2.90;;;20.10;93.00;;;;;;4991048;28;20372;-69
2022/08/31 09:27:57;;;;;;;5.03;2.30;;;20.00;92.30;;;;;;4991673;28;20058;-69
2022/08/31 09:30:44;;;;;;;5.40;2.15;;;20.10;92.90;;;;;;4991845;28;20026;-70
2022/08/31 09:33:21;;;;;;;4.85;2.70;;;20.10;92.40;;;;;;4992058;28;20022;-70
2022/08/31 09:35:54;;;;;;;7.43;2.47;;;20.20;92.10;;;;;;4988867;28;20109;-70
2022/08/31 09:38:39;;;;;;;8.07;3.33;;;20.20;91.90;;;;;;4997372;28;20125;-70
2022/08/31 09:41:32;;;;;;;11.32;3.25;;;20.20;91.50;;;;;;5007630;28;20042;-70
2022/08/31 09:44:28;;;;;;;8.95;2.92;;;20.30;91.90;;;;;;4996431;28;20456;-69
2022/08/31 09:46:57;;;;;;;6.10;2.70;;;20.30;91.90;;;;;;4999616;28;20042;-69
2022/08/31 09:49:35;;;;;;;5.80;2.47;;;20.30;92.30;;;;;;5008806;28;20132;-69
2022/08/31 09:55:12;;;;;;;5.22;2.63;;;20.40;91.60;;;;;;4991872;28;20497;-68
2022/08/31 09:57:44;;;;;;;5.32;2.20;;;20.50;92.10;;;;;;4992348;28;20110;-69
2022/08/31 10:00:14;;;;;;;5.00;2.90;;;20.60;92.10;;;;;;4991696;28;20034;-70
2022/08/31 10:02:42;;;;;;;5.10;2.50;;;20.60;91.40;;;;;;4992076;28;20546;-70
2022/08/31 10:05:39;;;;;;;6.47;2.55;;;20.70;91.70;;;;;;4991560;28;20450;-69
2022/08/31 10:08:45;;;;;;;5.88;2.65;;;20.70;91.40;;;;;;4990996;28;20027;-70
2022/08/31 10:11:22;;;;;;;6.20;2.92;;;20.80;91.30;;;;;;4989477;28;20091;-69
2022/08/31 10:14:03;;;;;;;5.90;2.95;;;20.80;91.60;;;;;;4991800;28;20030;-70
2022/08/31 10:16:41;;;;;;;4.88;2.60;;;20.80;91.20;;;;;;4991553;28;20031;-69
2022/08/31 10:19:29;;;;;;;3.95;2.67;;;20.80;91.80;;;;;;4991193;28;20034;-68
2022/08/31 10:22:06;;;;;;;5.78;2.38;;;20.80;92.30;;;;;;4991159;28;20042;-69
2022/08/31 10:24:42;;;;;;;5.15;2.65;;;20.80;92.60;;;;;;4991489;28;20420;-69
2022/08/31 10:27:16;;;;;;;6.03;2.55;;;20.80;91.70;;;;;;4991259;28;20434;-69
2022/08/31 10:30:06;;;;;;;5.93;2.30;;;20.80;91.50;;;;;;4990959;28;20037;-68
2022/08/31 10:32:50;;;;;;;6.95;2.75;;;20.90;91.50;;;;;;4990899;28;20105;-69
2022/08/31 10:35:21;;;;;;;6.75;2.65;;;21.00;91.10;;;;;;4990965;28;20042;-69
2022/08/31 10:37:57;;;;;;;4.45;2.47;;;21.00;91.20;;;;;;4989438;28;20088;-69
2022/08/31 10:40:23;;;;;;;7.13;2.97;;;21.00;91.50;;;;;;4990460;28;20093;-69
2022/08/31 10:43:12;;;;;;;4.43;2.50;;;21.00;91.30;;;;;;4990816;28;20034;-69
2022/08/31 10:45:42;;;;;;;5.15;2.60;;;21.00;91.40;;;;;;4990460;28;20039;-69
2022/08/31 10:48:11;;;;;;;5.03;2.58;;;21.00;91.50;;;;;;4990625;28;20041;-69
2022/08/31 10:51:02;;;;;;;5.28;2.70;;;21.10;91.40;;;;;;4990428;28;20026;-69
2022/08/31 10:53:49;;;;;;;5.53;2.72;;;21.10;91.50;;;;;;4990646;28;20395;-69
2022/08/31 10:56:27;;;;;;;5.40;2.70;;;21.20;91.30;;;;;;4990411;28;20038;-68
2022/08/31 10:59:17;;;;;;;5.22;3.05;;;21.20;91.30;;;;;;4990515;28;20384;-69
2022/08/31 11:01:56;;;;;;;5.55;2.88;;;21.20;91.40;;;;;;4990336;28;20480;-70
2022/08/31 11:04:28;;;;;;;5.40;2.70;;;21.30;90.90;;;;;;4990802;28;20042;-69
2022/08/31 11:06:53;;;;;;;7.22;3.00;;;21.40;90.90;;;;;;4989434;28;20030;-69
2022/08/31 11:09:32;;;;;;;5.30;3.15;;;21.40;91.20;;;;;;4990848;28;20030;-68
2022/08/31 11:12:10;;;;;;;5.78;2.92;;;21.40;91.20;;;;;;4990619;28;20495;-68
2022/08/31 11:15:08;;;;;;;6.45;3.72;;;21.40;91.00;;;;;;4990894;28;20403;-69
2022/08/31 11:18:05;;;;;;;8.05;3.70;;;21.50;90.60;;;;;;4990291;28;20069;-69
2022/08/31 11:20:38;;;;;;;6.05;3.33;;;21.50;91.00;;;;;;4990150;28;20026;-68
2022/08/31 11:23:28;;;;;;;7.53;3.80;;;21.50;90.90;;;;;;4989005;28;20034;-68
2022/08/31 11:26:25;;;;;;;6.70;3.35;;;21.60;90.80;;;;;;4988948;28;20038;-68
2022/08/31 11:28:59;;;;;;;5.82;3.05;;;21.60;90.90;;;;;;4990083;28;20625;-69
2022/08/31 11:31:29;;;;;;;5.63;3.53;;;21.70;90.80;;;;;;4990350;28;20026;-69
2022/08/31 11:33:59;;;;;;;5.28;3.03;;;21.80;90.40;;;;;;4990182;28;20056;-69
2022/08/31 11:36:49;;;;;;;4.53;3.03;;;21.80;90.40;;;;;;4990036;28;20028;-69
2022/08/31 11:39:17;;;;;;;5.32;2.85;;;21.90;90.10;;;;;;4990128;28;20031;-69
2022/08/31 11:41:47;;;;;;;;;;;21.90;90.30;;;;;;4990411;28;20422;-69
2022/08/31 11:44:32;;;;;;;6.03;2.97;;;22.00;90.20;;;;;;4990120;28;19921;-72
2022/08/31 11:47:29;;;;;;;5.40;2.90;;;22.10;90.20;;;;;;4989594;28;20387;-73
2022/08/31 11:49:58;;;;;;;6.28;3.00;;;22.20;90.10;;;;;;4988547;28;20116;-74
2022/08/31 11:52:37;;;;;;;7.55;3.00;;;22.20;91.50;;;;;;4989714;28;20053;-75
2022/08/31 11:55:19;;;;;;;5.22;3.05;;;22.20;91.70;;;;;;4990677;28;20368;-75
2022/08/31 11:58:06;;;;;;;6.88;3.40;;;22.20;93.70;;;;;;5003613;28;20034;-66
2022/08/31 12:00:57;;;;;;;5.50;3.55;;;21.90;97.40;;;;;;5008439;28;20080;-69
2022/08/31 12:03:35;;;;;;;6.70;3.70;;;21.70;96.50;;;;;;4984853;28;20042;-69
2022/08/31 12:06:02;;;;;;;6.53;3.65;;;21.50;97.00;;;;;;4999802;28;20444;-70
2022/08/31 12:08:31;;;;;;;6.47;3.50;;;21.30;97.50;;;;;;5000267;28;20057;-69
2022/08/31 12:11:05;;;;;;;5.75;3.90;;;21.20;97.90;;;;;;4992790;28;20454;-68
2022/08/31 12:13:54;;;;;;;4.45;3.58;;;21.10;97.20;;;;;;4992422;28;20034;-71
2022/08/31 12:16:46;;;;;;;5.80;3.50;;;21.10;96.80;;;;;;5006318;28;20041;-70
2022/08/31 12:20:03;;;;;;;7.53;4.25;;;21.10;98.60;;;;;;5008673;28;20034;-70
2022/08/31 12:26:08;;;;;;;6.70;4.57;;;20.90;99.50;;;;;;5002748;28;20100;-71
2022/08/31 12:28:54;;;;;;;8.27;3.92;;;20.90;99.90;;;;;;5011524;28;20034;-70
2022/08/31 12:31:23;;;;;;;4.43;3.42;;;20.90;99.10;;;;;;5011417;28;20125;-70
2022/08/31 12:34:28;;;;;;;8.40;4.50;;;20.90;98.50;;;;;;5011816;28;20548;-70
2022/08/31 12:36:54;;;;;;;6.00;3.38;;;20.90;99.90;;;;;;4977572;28;20030;-70
2022/08/31 12:39:26;;;;;;;5.78;3.67;;;20.80;99.70;;;;;;4992535;28;20169;-70
2022/08/31 12:42:03;;;;;;;5.55;3.95;;;20.80;99.90;;;;;;5008614;28;20033;-70
2022/08/31 12:44:37;;;;;;;5.57;4.03;;;20.80;99.50;;;;;;4992024;28;20030;-70
2022/08/31 12:47:26;;;;;;;5.90;4.05;;;20.80;99.90;;;;;;4994060;28;20070;-69
2022/08/31 12:50:17;;;;;;;5.88;4.05;;;20.80;99.90;;;;;;5000326;28;20045;-69
2022/08/31 12:52:58;;;;;;;5.10;4.10;;;20.70;99.90;;;;;;4992146;28;20077;-69
2022/08/31 12:55:48;;;;;;;10.50;4.07;;;20.60;99.90;;;;;;4991530;28;20046;-69
2022/08/31 12:58:13;;;;;;;5.60;4.07;;;20.60;98.90;;;;;;4991499;28;20044;-69
2022/08/31 13:00:42;;;;;;;9.32;4.75;;;20.60;99.90;;;;;;4992794;28;20553;-69
2022/08/31 13:03:22;;;;;;;6.57;4.32;;;20.60;99.90;;;;;;4994305;28;20031;-69
2022/08/31 13:06:02;;;;;;;9.13;4.65;;;20.60;99.90;;;;;;5010425;28;20037;-69
2022/08/31 13:08:35;;;;;;;7.90;4.72;;;20.60;99.90;;;;;;5009774;28;20042;-69
2022/08/31 13:11:31;;;;;;;5.38;4.10;;;20.60;99.90;;;;;;5011736;28;20034;-69
2022/08/31 13:14:23;;;;;;;8.02;4.60;;;20.60;99.90;;;;;;5011522;28;20053;-68
2022/08/31 13:17:03;;;;;;;7.30;4.28;;;20.70;99.90;;;;;;5010962;28;20044;-69
2022/08/31 13:19:32;;;;;;;5.97;4.80;;;20.80;99.90;;;;;;5011596;28;20394;-69
2022/08/31 13:22:15;;;;;;;7.55;4.60;;;20.70;99.90;;;;;;5012040;28;20034;-71
2022/08/31 13:24:45;;;;;;;9.60;3.83;;;20.70;99.90;;;;;;5012080;28;20030;-69
2022/08/31 13:27:20;;;;;;;6.40;3.67;;;20.80;99.90;;;;;;5011203;28;20041;-68
2022/08/31 13:29:47;;;;;;;6.45;4.47;;;20.90;99.90;;;;;;5010924;28;20025;-69
2022/08/31 13:32:31;;;;;;;6.10;4.30;;;20.90;99.90;;;;;;5010295;28;20109;-68
2022/08/31 13:35:02;;;;;;;6.38;4.50;;;20.80;99.90;;;;;;5011540;28;20042;-70
2022/08/31 13:37:36;;;;;;;5.70;4.13;;;20.80;99.90;;;;;;5010801;28;20037;-70
2022/08/31 13:40:17;;;;;;;6.60;3.78;;;20.80;99.90;;;;;;5011167;28;20041;-70
2022/08/31 13:42:48;;;;;;;4.18;3.30;;;20.90;99.90;;;;;;5011397;28;20415;-71